sensor_id;sensor_type;location;lat;lon;timestamp;pressure;altitude;pressure_sealevel;temperature;humidity
72124;BME280;63818;37.134;-8.548;2023-02-28T00:01:25;101680.8;;;13.7;58.4
72124;BME280;63818;37.134;-8.548;2023-02-28T00:06:12;101669.1;;;13.8;58.0
72124;BME280;63818;37.134;-8.548;2023-02-28T00:11:03;101667.6;;;13.9;57.8
72124;BME280;63818;37.134;-8.548;2023-02-28T00:16:03;101698.9;;;13.9;57.6
72124;BME280;63818;37.134;-8.548;2023-02-28T00:20:49;101690.0;;;13.9;57.6
72124;BME280;63818;37.134;-8.548;2023-02-28T00:25:35;101707.8;;;13.8;57.6
72124;BME280;63818;37.134;-8.548;2023-02-28T00:30:23;101710.2;;;13.8;58.1
72124;BME280;63818;37.134;-8.548;2023-02-28T00:35:12;101667.0;;;13.8;58.4
72124;BME280;63818;37.134;-8.548;2023-02-28T00:39:59;101668.0;;;13.8;58.4
72124;BME280;63818;37.134;-8.548;2023-02-28T00:44:45;101685.5;;;13.9;58.4
72124;BME280;63818;37.134;-8.548;2023-02-28T00:49:34;101673.9;;;13.8;58.7
72124;BME280;63818;37.134;-8.548;2023-02-28T00:54:21;101708.3;;;13.8;59.0
72124;BME280;63818;37.134;-8.548;2023-02-28T00:59:07;101696.2;;;13.8;59.0
72124;BME280;63818;37.134;-8.548;2023-02-28T01:03:54;101689.8;;;13.7;58.9
72124;BME280;63818;37.134;-8.548;2023-02-28T01:08:40;101669.0;;;13.7;58.7
72124;BME280;63818;37.134;-8.548;2023-02-28T01:13:26;101651.7;;;13.7;59.3
72124;BME280;63818;37.134;-8.548;2023-02-28T01:18:12;101673.9;;;13.8;59.3
72124;BME280;63818;37.134;-8.548;2023-02-28T01:22:57;101649.2;;;13.8;59.2
72124;BME280;63818;37.134;-8.548;2023-02-28T01:27:43;101660.6;;;13.7;59.4
72124;BME280;63818;37.134;-8.548;2023-02-28T01:32:29;101660.8;;;13.7;59.5
72124;BME280;63818;37.134;-8.548;2023-02-28T01:37:15;101647.3;;;13.7;59.7
72124;BME280;63818;37.134;-8.548;2023-02-28T01:42:01;101652.5;;;13.7;60.0
72124;BME280;63818;37.134;-8.548;2023-02-28T01:46:49;101660.1;;;13.6;60.2
72124;BME280;63818;37.134;-8.548;2023-02-28T01:51:41;101671.2;;;13.6;60.2
72124;BME280;63818;37.134;-8.548;2023-02-28T01:56:30;101676.3;;;13.6;60.9
72124;BME280;63818;37.134;-8.548;2023-02-28T02:01:22;101689.6;;;13.6;61.2
72124;BME280;63818;37.134;-8.548;2023-02-28T02:06:09;101691.7;;;13.5;61.0
72124;BME280;63818;37.134;-8.548;2023-02-28T02:10:56;101687.0;;;13.4;60.8
72124;BME280;63818;37.134;-8.548;2023-02-28T02:15:47;101683.0;;;13.4;60.6
72124;BME280;63818;37.134;-8.548;2023-02-28T02:21:10;101702.4;;;13.4;60.0
72124;BME280;63818;37.134;-8.548;2023-02-28T02:26:15;101704.8;;;13.4;59.8
72124;BME280;63818;37.134;-8.548;2023-02-28T02:31:18;101705.1;;;13.4;60.1
72124;BME280;63818;37.134;-8.548;2023-02-28T02:36:12;101695.8;;;13.3;60.6
72124;BME280;63818;37.134;-8.548;2023-02-28T02:41:06;101710.7;;;13.3;61.5
72124;BME280;63818;37.134;-8.548;2023-02-28T02:45:56;101708.0;;;13.3;62.0
72124;BME280;63818;37.134;-8.548;2023-02-28T02:50:46;101708.3;;;13.3;61.6
72124;BME280;63818;37.134;-8.548;2023-02-28T02:55:34;101707.0;;;13.3;61.4
72124;BME280;63818;37.134;-8.548;2023-02-28T03:00:28;101691.1;;;13.2;61.6
72124;BME280;63818;37.134;-8.548;2023-02-28T03:05:18;101694.9;;;13.2;61.4
72124;BME280;63818;37.134;-8.548;2023-02-28T03:10:28;101700.9;;;13.2;61.5
72124;BME280;63818;37.134;-8.548;2023-02-28T03:15:19;101698.5;;;13.2;61.9
72124;BME280;63818;37.134;-8.548;2023-02-28T03:20:15;101700.7;;;13.2;61.9
72124;BME280;63818;37.134;-8.548;2023-02-28T03:25:08;101706.0;;;13.2;61.7
72124;BME280;63818;37.134;-8.548;2023-02-28T03:30:02;101713.0;;;13.2;61.4
72124;BME280;63818;37.134;-8.548;2023-02-28T03:34:54;101718.4;;;13.2;61.6
72124;BME280;63818;37.134;-8.548;2023-02-28T03:39:47;101703.8;;;13.2;61.8
72124;BME280;63818;37.134;-8.548;2023-02-28T03:44:39;101715.4;;;13.2;61.7
72124;BME280;63818;37.134;-8.548;2023-02-28T03:49:30;101705.7;;;13.2;61.4
72124;BME280;63818;37.134;-8.548;2023-02-28T03:54:22;101698.2;;;13.2;61.2
72124;BME280;63818;37.134;-8.548;2023-02-28T03:59:13;101697.9;;;13.2;61.2
72124;BME280;63818;37.134;-8.548;2023-02-28T04:04:00;101695.2;;;13.2;60.8
72124;BME280;63818;37.134;-8.548;2023-02-28T04:08:47;101682.6;;;13.2;61.1
72124;BME280;63818;37.134;-8.548;2023-02-28T04:13:32;101676.9;;;13.2;60.9
72124;BME280;63818;37.134;-8.548;2023-02-28T04:18:21;101679.5;;;13.2;60.9
72124;BME280;63818;37.134;-8.548;2023-02-28T04:23:07;101682.2;;;13.1;61.5
72124;BME280;63818;37.134;-8.548;2023-02-28T04:27:56;101666.8;;;13.1;61.4
72124;BME280;63818;37.134;-8.548;2023-02-28T04:32:42;101666.8;;;13.1;61.2
72124;BME280;63818;37.134;-8.548;2023-02-28T04:37:28;101675.2;;;13.1;61.1
72124;BME280;63818;37.134;-8.548;2023-02-28T04:42:14;101682.1;;;13.0;62.6
72124;BME280;63818;37.134;-8.548;2023-02-28T04:47:00;101673.7;;;13.0;63.2
72124;BME280;63818;37.134;-8.548;2023-02-28T04:51:49;101681.0;;;13.0;62.8
72124;BME280;63818;37.134;-8.548;2023-02-28T04:56:39;101665.4;;;13.0;62.0
72124;BME280;63818;37.134;-8.548;2023-02-28T05:01:27;101657.0;;;12.9;62.1
72124;BME280;63818;37.134;-8.548;2023-02-28T05:06:16;101667.8;;;12.9;62.2
72124;BME280;63818;37.134;-8.548;2023-02-28T05:11:03;101680.0;;;12.9;62.3
72124;BME280;63818;37.134;-8.548;2023-02-28T05:15:49;101685.2;;;12.8;62.4
72124;BME280;63818;37.134;-8.548;2023-02-28T05:20:37;101690.3;;;12.8;62.5
72124;BME280;63818;37.134;-8.548;2023-02-28T05:25:26;101682.3;;;12.8;62.8
72124;BME280;63818;37.134;-8.548;2023-02-28T05:30:15;101698.3;;;12.8;62.7
72124;BME280;63818;37.134;-8.548;2023-02-28T05:35:03;101699.4;;;12.7;62.9
72124;BME280;63818;37.134;-8.548;2023-02-28T05:39:49;101700.0;;;12.7;62.8
72124;BME280;63818;37.134;-8.548;2023-02-28T05:44:36;101709.2;;;12.6;62.5
72124;BME280;63818;37.134;-8.548;2023-02-28T05:49:23;101717.6;;;12.6;62.6
72124;BME280;63818;37.134;-8.548;2023-02-28T05:54:09;101717.8;;;12.5;62.8
72124;BME280;63818;37.134;-8.548;2023-02-28T05:58:55;101734.4;;;12.4;63.1
72124;BME280;63818;37.134;-8.548;2023-02-28T06:03:42;101748.3;;;12.4;63.4
72124;BME280;63818;37.134;-8.548;2023-02-28T06:08:28;101737.8;;;12.3;62.9
72124;BME280;63818;37.134;-8.548;2023-02-28T06:13:14;101751.3;;;12.3;62.9
72124;BME280;63818;37.134;-8.548;2023-02-28T06:18:04;101743.0;;;12.3;63.1
72124;BME280;63818;37.134;-8.548;2023-02-28T06:22:51;101748.6;;;12.3;62.9
72124;BME280;63818;37.134;-8.548;2023-02-28T06:27:37;101760.4;;;12.4;62.8
72124;BME280;63818;37.134;-8.548;2023-02-28T06:32:23;101777.5;;;12.4;62.9
72124;BME280;63818;37.134;-8.548;2023-02-28T06:37:11;101778.1;;;12.4;62.8
72124;BME280;63818;37.134;-8.548;2023-02-28T06:41:57;101788.3;;;12.4;62.7
72124;BME280;63818;37.134;-8.548;2023-02-28T06:46:45;101805.1;;;12.4;62.9
72124;BME280;63818;37.134;-8.548;2023-02-28T06:51:30;101800.8;;;12.4;63.1
72124;BME280;63818;37.134;-8.548;2023-02-28T06:56:18;101805.4;;;12.4;62.9
72124;BME280;63818;37.134;-8.548;2023-02-28T07:01:04;101819.1;;;12.4;63.3
72124;BME280;63818;37.134;-8.548;2023-02-28T07:05:50;101832.9;;;12.3;63.7
72124;BME280;63818;37.134;-8.548;2023-02-28T07:10:39;101827.8;;;12.3;63.9
72124;BME280;63818;37.134;-8.548;2023-02-28T07:15:25;101816.7;;;12.3;63.9
72124;BME280;63818;37.134;-8.548;2023-02-28T07:20:14;101819.4;;;12.3;64.0
72124;BME280;63818;37.134;-8.548;2023-02-28T07:25:00;101831.0;;;12.4;63.6
72124;BME280;63818;37.134;-8.548;2023-02-28T07:29:47;101820.2;;;12.4;63.8
72124;BME280;63818;37.134;-8.548;2023-02-28T07:34:33;101820.5;;;12.3;63.4
72124;BME280;63818;37.134;-8.548;2023-02-28T07:39:19;101815.7;;;12.3;62.9
72124;BME280;63818;37.134;-8.548;2023-02-28T07:44:06;101818.9;;;12.3;62.1
72124;BME280;63818;37.134;-8.548;2023-02-28T07:48:57;101829.4;;;12.3;62.1
72124;BME280;63818;37.134;-8.548;2023-02-28T07:53:43;101808.4;;;12.4;62.0
72124;BME280;63818;37.134;-8.548;2023-02-28T07:58:30;101822.8;;;12.4;62.0
72124;BME280;63818;37.134;-8.548;2023-02-28T08:03:15;101822.8;;;12.4;62.2
72124;BME280;63818;37.134;-8.548;2023-02-28T08:08:02;101829.8;;;12.4;62.5
72124;BME280;63818;37.134;-8.548;2023-02-28T08:12:48;101826.1;;;12.4;61.8
72124;BME280;63818;37.134;-8.548;2023-02-28T08:17:34;101824.2;;;12.4;61.4
72124;BME280;63818;37.134;-8.548;2023-02-28T08:22:23;101828.5;;;12.4;61.3
72124;BME280;63818;37.134;-8.548;2023-02-28T08:27:09;101833.6;;;12.4;61.3
72124;BME280;63818;37.134;-8.548;2023-02-28T08:31:55;101839.7;;;12.4;60.7
72124;BME280;63818;37.134;-8.548;2023-02-28T08:36:42;101855.1;;;12.4;60.6
72124;BME280;63818;37.134;-8.548;2023-02-28T08:41:29;101866.4;;;12.5;61.3
72124;BME280;63818;37.134;-8.548;2023-02-28T08:46:27;101867.7;;;12.5;60.8
72124;BME280;63818;37.134;-8.548;2023-02-28T08:51:16;101884.7;;;12.5;62.4
72124;BME280;63818;37.134;-8.548;2023-02-28T08:56:04;101885.4;;;12.4;64.6
72124;BME280;63818;37.134;-8.548;2023-02-28T09:00:51;101881.8;;;12.5;65.2
72124;BME280;63818;37.134;-8.548;2023-02-28T09:05:38;101877.5;;;12.6;65.4
72124;BME280;63818;37.134;-8.548;2023-02-28T09:10:23;101891.3;;;12.8;65.2
72124;BME280;63818;37.134;-8.548;2023-02-28T09:15:17;101890.7;;;12.8;64.8
72124;BME280;63818;37.134;-8.548;2023-02-28T09:20:04;101886.6;;;12.9;64.3
72124;BME280;63818;37.134;-8.548;2023-02-28T09:24:50;101875.0;;;12.9;63.8
72124;BME280;63818;37.134;-8.548;2023-02-28T09:29:36;101883.1;;;12.9;63.9
72124;BME280;63818;37.134;-8.548;2023-02-28T09:34:22;101895.4;;;12.9;63.5
72124;BME280;63818;37.134;-8.548;2023-02-28T09:39:10;101905.2;;;13.0;62.4
72124;BME280;63818;37.134;-8.548;2023-02-28T09:44:18;101917.8;;;13.1;62.0
72124;BME280;63818;37.134;-8.548;2023-02-28T09:49:10;101901.9;;;13.1;61.8
72124;BME280;63818;37.134;-8.548;2023-02-28T09:53:59;101886.4;;;13.2;60.8
72124;BME280;63818;37.134;-8.548;2023-02-28T09:58:49;101897.6;;;13.2;60.1
72124;BME280;63818;37.134;-8.548;2023-02-28T10:03:47;101884.2;;;13.2;56.9
72124;BME280;63818;37.134;-8.548;2023-02-28T10:08:41;101877.3;;;13.1;55.7
72124;BME280;63818;37.134;-8.548;2023-02-28T10:13:37;101887.8;;;13.1;55.6
72124;BME280;63818;37.134;-8.548;2023-02-28T10:18:33;101892.1;;;13.1;55.3
72124;BME280;63818;37.134;-8.548;2023-02-28T10:23:24;101886.4;;;13.2;55.9
72124;BME280;63818;37.134;-8.548;2023-02-28T10:28:13;101886.9;;;13.2;56.0
72124;BME280;63818;37.134;-8.548;2023-02-28T10:33:00;101876.9;;;13.2;55.6
72124;BME280;63818;37.134;-8.548;2023-02-28T10:37:49;101875.0;;;13.2;55.3
72124;BME280;63818;37.134;-8.548;2023-02-28T10:42:35;101873.4;;;13.2;55.4
72124;BME280;63818;37.134;-8.548;2023-02-28T10:47:21;101868.2;;;13.2;55.0
72124;BME280;63818;37.134;-8.548;2023-02-28T10:52:11;101885.7;;;13.2;55.0
72124;BME280;63818;37.134;-8.548;2023-02-28T10:57:09;101883.2;;;13.3;54.6
72124;BME280;63818;37.134;-8.548;2023-02-28T11:01:57;101881.5;;;13.3;55.1
72124;BME280;63818;37.134;-8.548;2023-02-28T11:06:46;101879.6;;;13.4;55.6
72124;BME280;63818;37.134;-8.548;2023-02-28T11:11:43;101872.6;;;13.4;54.8
72124;BME280;63818;37.134;-8.548;2023-02-28T11:16:35;101859.4;;;13.3;53.9
72124;BME280;63818;37.134;-8.548;2023-02-28T11:21:27;101860.2;;;13.4;53.9
72124;BME280;63818;37.134;-8.548;2023-02-28T11:26:13;101864.1;;;13.4;54.3
72124;BME280;63818;37.134;-8.548;2023-02-28T11:31:04;101841.6;;;13.5;53.7
72124;BME280;63818;37.134;-8.548;2023-02-28T11:36:00;101832.1;;;13.5;53.6
72124;BME280;63818;37.134;-8.548;2023-02-28T11:41:01;101834.2;;;13.5;53.7
72124;BME280;63818;37.134;-8.548;2023-02-28T11:46:02;101830.2;;;13.5;52.7
72124;BME280;63818;37.134;-8.548;2023-02-28T11:51:00;101827.9;;;13.6;53.4
72124;BME280;63818;37.134;-8.548;2023-02-28T11:55:52;101825.3;;;13.7;53.0
72124;BME280;63818;37.134;-8.548;2023-02-28T12:01:00;101813.0;;;13.7;51.9
72124;BME280;63818;37.134;-8.548;2023-02-28T12:05:54;101784.3;;;13.8;52.1
72124;BME280;63818;37.134;-8.548;2023-02-28T12:10:56;101789.1;;;13.8;53.9
72124;BME280;63818;37.134;-8.548;2023-02-28T12:16:01;101773.9;;;13.7;53.8
72124;BME280;63818;37.134;-8.548;2023-02-28T12:20:54;101772.1;;;13.7;53.7
72124;BME280;63818;37.134;-8.548;2023-02-28T12:25:55;101784.0;;;13.6;53.4
72124;BME280;63818;37.134;-8.548;2023-02-28T12:30:51;101784.5;;;13.7;53.8
72124;BME280;63818;37.134;-8.548;2023-02-28T12:35:46;101776.2;;;13.6;53.9
72124;BME280;63818;37.134;-8.548;2023-02-28T12:40:45;101763.2;;;13.7;54.9
72124;BME280;63818;37.134;-8.548;2023-02-28T12:45:42;101750.8;;;13.6;54.6
72124;BME280;63818;37.134;-8.548;2023-02-28T12:50:32;101743.0;;;13.6;54.9
72124;BME280;63818;37.134;-8.548;2023-02-28T12:55:21;101746.1;;;13.7;54.6
72124;BME280;63818;37.134;-8.548;2023-02-28T13:00:13;101738.8;;;13.7;54.4
72124;BME280;63818;37.134;-8.548;2023-02-28T13:05:07;101721.3;;;13.8;54.0
72124;BME280;63818;37.134;-8.548;2023-02-28T13:09:59;101721.0;;;13.8;53.7
72124;BME280;63818;37.134;-8.548;2023-02-28T13:14:46;101711.5;;;13.8;54.2
72124;BME280;63818;37.134;-8.548;2023-02-28T13:19:35;101695.8;;;13.8;54.6
72124;BME280;63818;37.134;-8.548;2023-02-28T13:24:41;101712.7;;;13.9;55.4
72124;BME280;63818;37.134;-8.548;2023-02-28T13:29:31;101699.4;;;13.9;54.3
72124;BME280;63818;37.134;-8.548;2023-02-28T13:34:17;101700.7;;;13.9;54.2
72124;BME280;63818;37.134;-8.548;2023-02-28T13:39:44;101692.8;;;14.0;54.6
72124;BME280;63818;37.134;-8.548;2023-02-28T13:44:06;101690.2;;;14.0;54.8
72124;BME280;63818;37.134;-8.548;2023-02-28T13:48:52;101680.5;;;14.1;53.9
72124;BME280;63818;37.134;-8.548;2023-02-28T13:54:04;101673.5;;;14.1;53.8
72124;BME280;63818;37.134;-8.548;2023-02-28T13:58:57;101665.5;;;14.2;53.3
72124;BME280;63818;37.134;-8.548;2023-02-28T14:04:00;101666.0;;;14.2;52.9
72124;BME280;63818;37.134;-8.548;2023-02-28T14:08:52;101669.3;;;14.3;53.6
72124;BME280;63818;37.134;-8.548;2023-02-28T14:13:42;101666.4;;;14.4;53.8
72124;BME280;63818;37.134;-8.548;2023-02-28T14:18:31;101660.0;;;14.4;53.2
72124;BME280;63818;37.134;-8.548;2023-02-28T14:23:25;101637.0;;;14.6;53.3
72124;BME280;63818;37.134;-8.548;2023-02-28T14:28:19;101624.4;;;14.6;53.0
72124;BME280;63818;37.134;-8.548;2023-02-28T14:33:19;101639.2;;;14.8;53.9
72124;BME280;63818;37.134;-8.548;2023-02-28T14:38:17;101631.6;;;14.9;53.0
72124;BME280;63818;37.134;-8.548;2023-02-28T14:43:16;101615.9;;;15.1;53.4
72124;BME280;63818;37.134;-8.548;2023-02-28T14:47:58;101605.6;;;15.2;52.1
72124;BME280;63818;37.134;-8.548;2023-02-28T14:52:49;101597.0;;;15.6;51.4
72124;BME280;63818;37.134;-8.548;2023-02-28T14:57:57;101593.9;;;16.2;47.6
72124;BME280;63818;37.134;-8.548;2023-02-28T15:02:52;101565.7;;;20.2;40.7
72124;BME280;63818;37.134;-8.548;2023-02-28T15:07:40;101549.3;;;24.4;34.6
72124;BME280;63818;37.134;-8.548;2023-02-28T15:12:28;101534.7;;;26.2;27.0
72124;BME280;63818;37.134;-8.548;2023-02-28T15:17:23;101527.9;;;25.8;25.6
72124;BME280;63818;37.134;-8.548;2023-02-28T15:22:13;101512.2;;;25.9;26.1
72124;BME280;63818;37.134;-8.548;2023-02-28T15:27:04;101531.1;;;26.6;25.0
72124;BME280;63818;37.134;-8.548;2023-02-28T15:31:56;101524.8;;;24.9;26.5
72124;BME280;63818;37.134;-8.548;2023-02-28T15:36:43;101529.4;;;24.5;26.4
72124;BME280;63818;37.134;-8.548;2023-02-28T15:41:31;101531.1;;;24.2;26.8
72124;BME280;63818;37.134;-8.548;2023-02-28T15:46:20;101524.7;;;24.1;27.7
72124;BME280;63818;37.134;-8.548;2023-02-28T15:51:08;101520.2;;;24.3;27.2
72124;BME280;63818;37.134;-8.548;2023-02-28T15:56:04;101538.7;;;24.0;28.0
72124;BME280;63818;37.134;-8.548;2023-02-28T16:01:04;101532.5;;;23.4;29.1
72124;BME280;63818;37.134;-8.548;2023-02-28T16:06:15;101538.0;;;23.6;29.1
72124;BME280;63818;37.134;-8.548;2023-02-28T16:11:03;101531.8;;;22.8;30.3
72124;BME280;63818;37.134;-8.548;2023-02-28T16:15:49;101500.8;;;22.7;30.5
72124;BME280;63818;37.134;-8.548;2023-02-28T16:20:38;101529.6;;;23.2;30.2
72124;BME280;63818;37.134;-8.548;2023-02-28T16:25:32;101526.3;;;22.8;30.5
72124;BME280;63818;37.134;-8.548;2023-02-28T16:30:22;101538.8;;;22.3;31.1
72124;BME280;63818;37.134;-8.548;2023-02-28T16:35:11;101523.2;;;22.0;31.9
72124;BME280;63818;37.134;-8.548;2023-02-28T16:39:59;101507.5;;;20.5;34.3
72124;BME280;63818;37.134;-8.548;2023-02-28T16:44:45;101514.6;;;20.0;35.3
72124;BME280;63818;37.134;-8.548;2023-02-28T16:49:33;101520.7;;;18.8;38.1
72124;BME280;63818;37.134;-8.548;2023-02-28T16:54:19;101520.3;;;18.2;39.0
72124;BME280;63818;37.134;-8.548;2023-02-28T16:59:08;101548.1;;;17.8;40.3
72124;BME280;63818;37.134;-8.548;2023-02-28T17:03:56;101527.0;;;17.7;41.2
72124;BME280;63818;37.134;-8.548;2023-02-28T17:08:42;101543.0;;;17.5;42.2
72124;BME280;63818;37.134;-8.548;2023-02-28T17:13:30;101524.4;;;17.4;42.6
72124;BME280;63818;37.134;-8.548;2023-02-28T17:18:18;101536.9;;;17.4;42.5
72124;BME280;63818;37.134;-8.548;2023-02-28T17:23:11;101554.9;;;17.1;41.6
72124;BME280;63818;37.134;-8.548;2023-02-28T17:27:59;101547.4;;;16.8;42.0
72124;BME280;63818;37.134;-8.548;2023-02-28T17:32:46;101565.5;;;16.8;42.5
72124;BME280;63818;37.134;-8.548;2023-02-28T17:37:34;101556.3;;;16.6;42.9
72124;BME280;63818;37.134;-8.548;2023-02-28T17:42:20;101558.3;;;16.6;43.6
72124;BME280;63818;37.134;-8.548;2023-02-28T17:47:06;101561.3;;;16.5;43.7
72124;BME280;63818;37.134;-8.548;2023-02-28T17:51:56;101576.0;;;16.2;44.8
72124;BME280;63818;37.134;-8.548;2023-02-28T17:56:42;101591.9;;;15.9;45.4
72124;BME280;63818;37.134;-8.548;2023-02-28T18:01:35;101574.2;;;15.6;45.4
72124;BME280;63818;37.134;-8.548;2023-02-28T18:06:23;101567.7;;;15.5;45.1
72124;BME280;63818;37.134;-8.548;2023-02-28T18:11:10;101578.8;;;15.3;45.9
72124;BME280;63818;37.134;-8.548;2023-02-28T18:20:49;101600.6;;;15.0;45.7
72124;BME280;63818;37.134;-8.548;2023-02-28T18:25:38;101599.1;;;14.9;46.5
72124;BME280;63818;37.134;-8.548;2023-02-28T18:30:27;101608.0;;;14.8;47.0
72124;BME280;63818;37.134;-8.548;2023-02-28T18:35:13;101602.4;;;14.7;47.4
72124;BME280;63818;37.134;-8.548;2023-02-28T18:39:59;101612.2;;;14.6;47.7
72124;BME280;63818;37.134;-8.548;2023-02-28T18:44:45;101625.3;;;14.6;47.9
72124;BME280;63818;37.134;-8.548;2023-02-28T18:49:32;101644.6;;;14.4;48.0
72124;BME280;63818;37.134;-8.548;2023-02-28T18:54:23;101642.1;;;14.4;48.7
72124;BME280;63818;37.134;-8.548;2023-02-28T18:59:11;101634.9;;;14.4;48.5
72124;BME280;63818;37.134;-8.548;2023-02-28T19:03:58;101642.1;;;14.3;49.2
72124;BME280;63818;37.134;-8.548;2023-02-28T19:08:45;101639.3;;;14.3;49.1
72124;BME280;63818;37.134;-8.548;2023-02-28T19:13:31;101652.3;;;14.3;49.6
72124;BME280;63818;37.134;-8.548;2023-02-28T19:18:19;101660.0;;;14.2;49.8
72124;BME280;63818;37.134;-8.548;2023-02-28T19:23:05;101659.5;;;14.3;49.5
72124;BME280;63818;37.134;-8.548;2023-02-28T19:27:54;101664.8;;;14.2;49.7
72124;BME280;63818;37.134;-8.548;2023-02-28T19:32:42;101664.3;;;14.4;49.7
72124;BME280;63818;37.134;-8.548;2023-02-28T19:37:31;101660.8;;;14.4;49.5
72124;BME280;63818;37.134;-8.548;2023-02-28T19:42:22;101660.9;;;14.3;49.5
72124;BME280;63818;37.134;-8.548;2023-02-28T19:47:08;101657.6;;;14.2;49.2
72124;BME280;63818;37.134;-8.548;2023-02-28T19:51:54;101660.6;;;14.2;49.1
72124;BME280;63818;37.134;-8.548;2023-02-28T19:56:40;101664.8;;;14.2;48.8
72124;BME280;63818;37.134;-8.548;2023-02-28T20:01:28;101665.6;;;14.2;47.6
72124;BME280;63818;37.134;-8.548;2023-02-28T20:06:15;101651.3;;;14.2;47.1
72124;BME280;63818;37.134;-8.548;2023-02-28T20:11:05;101666.1;;;14.3;46.6
72124;BME280;63818;37.134;-8.548;2023-02-28T20:15:51;101666.2;;;14.4;46.5
72124;BME280;63818;37.134;-8.548;2023-02-28T20:20:37;101656.7;;;14.4;45.6
72124;BME280;63818;37.134;-8.548;2023-02-28T20:25:24;101645.9;;;14.4;45.0
72124;BME280;63818;37.134;-8.548;2023-02-28T20:30:10;101649.7;;;14.4;44.5
72124;BME280;63818;37.134;-8.548;2023-02-28T20:34:56;101637.2;;;14.4;43.8
72124;BME280;63818;37.134;-8.548;2023-02-28T20:39:43;101642.8;;;14.3;43.8
72124;BME280;63818;37.134;-8.548;2023-02-28T20:44:28;101639.3;;;14.3;43.8
72124;BME280;63818;37.134;-8.548;2023-02-28T20:49:14;101655.2;;;14.3;43.8
72124;BME280;63818;37.134;-8.548;2023-02-28T20:54:00;101648.5;;;14.3;43.5
72124;BME280;63818;37.134;-8.548;2023-02-28T20:58:48;101649.5;;;14.2;42.8
72124;BME280;63818;37.134;-8.548;2023-02-28T21:03:38;101654.4;;;14.2;43.3
72124;BME280;63818;37.134;-8.548;2023-02-28T21:08:24;101654.4;;;14.2;43.4
72124;BME280;63818;37.134;-8.548;2023-02-28T21:13:10;101654.0;;;14.2;43.3
72124;BME280;63818;37.134;-8.548;2023-02-28T21:17:55;101655.9;;;14.2;42.9
72124;BME280;63818;37.134;-8.548;2023-02-28T21:22:41;101657.8;;;14.1;42.6
72124;BME280;63818;37.134;-8.548;2023-02-28T21:27:27;101665.5;;;14.1;42.6
72124;BME280;63818;37.134;-8.548;2023-02-28T21:32:13;101661.2;;;14.1;42.0
72124;BME280;63818;37.134;-8.548;2023-02-28T21:36:59;101662.3;;;14.1;42.1
72124;BME280;63818;37.134;-8.548;2023-02-28T21:41:46;101663.7;;;14.0;41.9
72124;BME280;63818;37.134;-8.548;2023-02-28T21:46:32;101665.3;;;14.1;41.9
72124;BME280;63818;37.134;-8.548;2023-02-28T21:51:20;101673.7;;;14.0;41.9
72124;BME280;63818;37.134;-8.548;2023-02-28T21:56:09;101676.3;;;14.0;42.1
72124;BME280;63818;37.134;-8.548;2023-02-28T22:01:07;101684.9;;;14.0;42.4
72124;BME280;63818;37.134;-8.548;2023-02-28T22:05:54;101689.6;;;14.0;42.4
72124;BME280;63818;37.134;-8.548;2023-02-28T22:10:45;101680.5;;;13.9;42.8
72124;BME280;63818;37.134;-8.548;2023-02-28T22:15:34;101681.0;;;13.8;43.0
72124;BME280;63818;37.134;-8.548;2023-02-28T22:20:20;101679.4;;;13.8;43.0
72124;BME280;63818;37.134;-8.548;2023-02-28T22:25:07;101683.5;;;13.7;43.2
72124;BME280;63818;37.134;-8.548;2023-02-28T22:29:55;101678.6;;;13.7;43.2
72124;BME280;63818;37.134;-8.548;2023-02-28T22:34:42;101683.1;;;13.8;42.5
72124;BME280;63818;37.134;-8.548;2023-02-28T22:39:27;101678.2;;;13.6;42.9
72124;BME280;63818;37.134;-8.548;2023-02-28T22:44:14;101690.9;;;13.6;43.2
72124;BME280;63818;37.134;-8.548;2023-02-28T22:49:00;101683.1;;;13.6;43.1
72124;BME280;63818;37.134;-8.548;2023-02-28T22:53:47;101678.8;;;13.6;43.2
72124;BME280;63818;37.134;-8.548;2023-02-28T22:58:35;101678.8;;;13.6;43.4
72124;BME280;63818;37.134;-8.548;2023-02-28T23:03:22;101683.5;;;13.6;43.3
72124;BME280;63818;37.134;-8.548;2023-02-28T23:08:09;101681.1;;;13.5;43.1
72124;BME280;63818;37.134;-8.548;2023-02-28T23:12:55;101677.5;;;13.4;43.3
72124;BME280;63818;37.134;-8.548;2023-02-28T23:17:41;101693.1;;;13.5;43.3
72124;BME280;63818;37.134;-8.548;2023-02-28T23:22:27;101692.6;;;13.4;43.2
72124;BME280;63818;37.134;-8.548;2023-02-28T23:27:13;101702.5;;;13.5;43.2
72124;BME280;63818;37.134;-8.548;2023-02-28T23:32:02;101705.2;;;13.5;43.0
72124;BME280;63818;37.134;-8.548;2023-02-28T23:36:48;101708.2;;;13.5;43.3
72124;BME280;63818;37.134;-8.548;2023-02-28T23:41:36;101704.8;;;13.4;43.5
72124;BME280;63818;37.134;-8.548;2023-02-28T23:46:23;101705.1;;;13.4;43.7
72124;BME280;63818;37.134;-8.548;2023-02-28T23:51:11;101698.1;;;13.4;43.9
72124;BME280;63818;37.134;-8.548;2023-02-28T23:56:00;101694.4;;;13.4;44.2
